Startpagina
METAR-TAF:

METAR-TAF

Vliegvelden :

Resistencia, Argentinië

breedte: 27-27S, lengte: 059-03W, hoogte: 53 m

Actueel weer

Dit bericht is 54 minuten geleden gemaakt, om 12:00 UTC
Wind 19 kt uit het noordoosten
Temperatuur 23°C
Vochtigheid 61%
Druk 1005 hPa
Zicht 10 km of meer
geen wolken onder 1500 m en geen cumulonimbus

METAR: SARE 211200Z 05019KT CAVOK 23/15 Q1005

Tijdstip: 09:54 (12:54 UTC)

Verwachting

Dit bericht is 1 uur en het 54 minuten geleden gemaakt, om 11:00 UTC
Verwachting geldig van 21 om 12 UTC tot 22 om 12 UTC
Wind 15 kt uit het noordnoordoosten met uitschieters tot 25 kt
Zicht 10 km of meer
geen wolken onder 1500 m en geen cumulonimbus
Wijzigt naar
van 22 om 08 UTC tot 22 om 10 UTC
Wind 5 kt uit het noorden

TAF: SARE 211100Z 2112/2212 02015G25KT CAVOK TX31/2118Z TN21/2210Z BECMG 2208/2210 36005KT

Waarnemingen en weersverwachtingen van meer dan 4000 vliegvelden (METAR en TAF).

De beschikbare stations zijn de gele en rode punten op de kaart.

Ga met uw muis naar het station om de naam te zien.

Klik dan om waarnemingen en weersverwachtingen te zien.

kaart wijzigen: klik op de groene knoppen met een zwart kruis om in te zoomen, op de groene knop met een streepje om uit te zoomen of op de groene pijlen voor aangrenzende kaarten.


METAR-TAF: